createdAt,value
2022-11-28T00:00:30.426Z,98957.34
2022-11-28T00:01:38.506Z,98963.00
2022-11-28T00:02:42.004Z,98963.72
2022-11-28T00:03:45.018Z,98968.66
2022-11-28T00:04:52.240Z,98959.69
2022-11-28T00:05:55.468Z,98959.47
2022-11-28T00:06:59.349Z,98960.00
2022-11-28T00:08:02.496Z,98966.16
2022-11-28T00:09:09.631Z,98965.41
2022-11-28T00:10:13.080Z,98965.13
2022-11-28T00:11:16.822Z,98976.75
2022-11-28T00:12:19.828Z,98964.91
2022-11-28T00:13:22.784Z,98970.84
2022-11-28T00:14:25.777Z,98969.59
2022-11-28T00:15:28.619Z,98968.34
2022-11-28T00:16:32.320Z,98969.41
2022-11-28T00:17:35.109Z,98961.72
2022-11-28T00:18:38.259Z,98969.41
2022-11-28T00:19:41.109Z,98964.69
2022-11-28T00:20:44.059Z,98967.78
2022-11-28T00:21:46.867Z,98963.87
2022-11-28T00:22:50.023Z,98961.44
2022-11-28T00:23:53.663Z,98959.25
2022-11-28T00:24:56.617Z,98968.12
2022-11-28T00:26:05.471Z,98957.28
2022-11-28T00:27:11.591Z,98958.72
2022-11-28T00:28:15.023Z,98967.41
2022-11-28T00:29:18.223Z,98969.41
2022-11-28T00:30:21.067Z,98966.69
2022-11-28T00:31:27.109Z,98959.00
2022-11-28T00:32:30.260Z,98963.72
2022-11-28T00:33:34.168Z,98966.44
2022-11-28T00:34:37.130Z,98967.41
2022-11-28T00:35:40.023Z,98965.41
2022-11-28T00:36:47.239Z,98962.69
2022-11-28T00:37:50.361Z,98969.59
2022-11-28T00:38:53.467Z,98970.34
2022-11-28T00:39:56.656Z,98963.66
2022-11-28T00:41:08.139Z,98970.56
2022-11-28T00:42:11.017Z,98967.84
2022-11-28T00:43:13.820Z,98965.63
2022-11-28T00:44:16.685Z,98963.87
2022-11-28T00:45:19.541Z,98969.31
2022-11-28T00:46:23.361Z,98965.13
2022-11-28T00:47:29.621Z,98963.16
2022-11-28T00:48:35.079Z,98966.38
2022-11-28T00:49:37.948Z,98958.66
2022-11-28T00:50:40.899Z,98964.53
2022-11-28T00:51:44.058Z,98965.34
2022-11-28T00:52:46.821Z,98965.63
2022-11-28T00:53:53.585Z,98969.81
2022-11-28T00:54:56.459Z,98969.81
2022-11-28T00:55:59.337Z,98975.47
2022-11-28T00:57:02.459Z,98967.03
2022-11-28T00:58:05.937Z,98978.66
2022-11-28T00:59:09.350Z,98973.44
2022-11-28T01:00:12.897Z,98971.22
2022-11-28T01:01:20.875Z,98970.50
2022-11-28T01:02:23.908Z,98972.16
2022-11-28T01:03:27.027Z,98973.22
2022-11-28T01:04:30.137Z,98974.22
2022-11-28T01:05:33.097Z,98972.97
2022-11-28T01:06:42.304Z,98968.06
2022-11-28T01:07:45.271Z,98970.72
2022-11-28T01:08:48.372Z,98969.00
2022-11-28T01:09:51.338Z,98973.50
2022-11-28T01:10:54.514Z,98965.63
2022-11-28T01:11:57.381Z,98972.78
2022-11-28T01:13:00.340Z,98962.09
2022-11-28T01:14:03.362Z,98963.16
2022-11-28T01:15:09.082Z,98956.97
2022-11-28T01:16:12.230Z,98960.44
2022-11-28T01:17:15.090Z,98957.72
2022-11-28T01:18:18.390Z,98957.63
2022-11-28T01:19:21.674Z,98959.38
2022-11-28T01:20:24.740Z,98957.19
2022-11-28T01:21:27.866Z,98957.91
2022-11-28T01:22:30.763Z,98952.50
2022-11-28T01:23:34.245Z,98951.47
2022-11-28T01:24:37.161Z,98949.97
2022-11-28T01:25:40.173Z,98957.91
2022-11-28T01:26:45.182Z,98949.25
2022-11-28T01:27:48.596Z,98945.78
2022-11-28T01:28:52.594Z,98953.94
2022-11-28T01:29:55.330Z,98947.34
2022-11-28T01:31:07.288Z,98950.56
2022-11-28T01:32:13.780Z,98949.84
2022-11-28T01:33:16.587Z,98954.34
2022-11-28T01:34:25.588Z,98956.28
2022-11-28T01:35:28.467Z,98947.34
2022-11-28T01:36:31.853Z,98947.25
2022-11-28T01:37:34.828Z,98948.69
2022-11-28T01:38:38.354Z,98954.69
2022-11-28T01:39:42.737Z,98949.31
2022-11-28T01:40:46.840Z,98938.25
2022-11-28T01:41:55.656Z,98946.91
2022-11-28T01:42:58.510Z,98949.41
2022-11-28T01:44:16.419Z,98944.41
2022-11-28T01:45:33.871Z,98937.00
2022-11-28T01:46:37.590Z,98927.37
2022-11-28T01:47:41.620Z,98924.88
2022-11-28T01:48:45.341Z,98922.66
2022-11-28T01:49:50.109Z,98924.66
2022-11-28T01:50:57.144Z,98921.41
2022-11-28T01:52:13.422Z,98912.97
2022-11-28T01:53:17.698Z,98921.84
2022-11-28T01:54:25.779Z,98921.94
2022-11-28T01:55:33.897Z,98912.09
2022-11-28T01:56:47.995Z,98921.72
2022-11-28T01:57:56.305Z,98920.47
2022-11-28T01:59:04.783Z,98913.06
2022-11-28T02:00:15.070Z,98911.06
2022-11-28T02:01:20.812Z,98911.06
2022-11-28T02:02:32.618Z,98912.31
2022-11-28T02:03:47.715Z,98912.31
2022-11-28T02:04:51.201Z,98907.09
2022-11-28T02:05:54.825Z,98913.25
2022-11-28T02:06:58.009Z,98909.81
2022-11-28T02:08:01.103Z,98911.50
2022-11-28T02:09:06.771Z,98910.78
2022-11-28T02:10:12.746Z,98906.38
2022-11-28T02:11:37.352Z,98904.16
2022-11-28T02:12:46.317Z,98902.19
2022-11-28T02:14:21.842Z,98903.66
2022-11-28T02:15:39.291Z,98897.47
2022-11-28T02:17:08.033Z,98899.47
2022-11-28T02:18:39.039Z,98901.78
2022-11-28T02:20:08.105Z,98904.09
2022-11-28T02:21:32.250Z,98907.81
2022-11-28T02:22:58.772Z,98901.66
2022-11-28T02:24:16.693Z,98901.66
2022-11-28T02:25:50.747Z,98898.34
2022-11-28T02:26:53.508Z,98902.16
2022-11-28T02:28:45.417Z,98888.34
2022-11-28T02:30:00.776Z,98891.00
2022-11-28T02:31:16.406Z,98901.66
2022-11-28T02:32:47.901Z,98901.22
2022-11-28T02:33:57.340Z,98895.37
2022-11-28T02:35:28.355Z,98896.31
2022-11-28T02:36:37.296Z,98892.03
2022-11-28T02:38:12.899Z,98885.66
2022-11-28T02:39:46.146Z,98886.69
2022-11-28T02:40:54.460Z,98887.87
2022-11-28T02:42:01.750Z,98891.84
2022-11-28T02:43:25.256Z,98882.00
2022-11-28T02:44:44.207Z,98886.41
2022-11-28T02:46:11.653Z,98883.16
2022-11-28T02:47:30.459Z,98882.00
2022-11-28T02:48:52.275Z,98888.87
2022-11-28T02:50:05.025Z,98883.16
2022-11-28T02:51:19.099Z,98883.28
2022-11-28T02:52:28.105Z,98879.19
2022-11-28T02:53:33.311Z,98879.72
2022-11-28T02:54:38.585Z,98878.81
2022-11-28T02:55:43.339Z,98878.38
2022-11-28T02:56:53.505Z,98875.91
2022-11-28T02:57:56.469Z,98869.50
2022-11-28T02:59:00.278Z,98875.16
2022-11-28T03:00:23.340Z,98872.56
2022-11-28T03:01:34.366Z,98877.66
2022-11-28T03:02:37.936Z,98871.66
2022-11-28T03:03:55.738Z,98873.41
2022-11-28T03:04:58.549Z,98872.91
2022-11-28T03:06:27.906Z,98866.72
2022-11-28T03:07:47.007Z,98870.53
2022-11-28T03:09:01.816Z,98881.72
2022-11-28T03:10:24.672Z,98874.38
2022-11-28T03:11:27.966Z,98873.84
2022-11-28T03:12:51.654Z,98872.19
2022-11-28T03:14:03.531Z,98877.59
2022-11-28T03:15:09.622Z,98863.50
2022-11-28T03:16:29.535Z,98870.69
2022-11-28T03:17:44.787Z,98867.03
2022-11-28T03:19:20.157Z,98853.44
2022-11-28T03:20:39.065Z,98859.09
2022-11-28T03:21:56.685Z,98850.22
2022-11-28T03:23:15.193Z,98854.31
2022-11-28T03:24:28.263Z,98854.09
2022-11-28T03:25:55.819Z,98855.56
2022-11-28T03:27:26.022Z,98851.19
2022-11-28T03:28:43.226Z,98854.84
2022-11-28T03:29:52.837Z,98849.94
2022-11-28T03:31:03.511Z,98844.06
2022-11-28T03:32:30.098Z,98846.47
2022-11-28T03:33:36.863Z,98841.72
2022-11-28T03:34:46.476Z,98838.03
2022-11-28T03:35:56.461Z,98842.97
2022-11-28T03:37:08.776Z,98832.09
2022-11-28T03:38:19.371Z,98837.94
2022-11-28T03:39:34.146Z,98836.50
2022-11-28T03:40:46.064Z,98833.34
2022-11-28T03:41:55.630Z,98819.25
2022-11-28T03:43:03.777Z,98819.63
2022-11-28T03:44:11.852Z,98823.44
2022-11-28T03:45:22.099Z,98822.50
2022-11-28T03:46:31.626Z,98824.31
2022-11-28T03:47:44.282Z,98819.94
2022-11-28T03:48:59.430Z,98813.00
2022-11-28T03:50:08.224Z,98814.78
2022-11-28T03:51:37.700Z,98810.00
2022-11-28T03:52:55.469Z,98813.22
2022-11-28T03:54:17.671Z,98808.69
2022-11-28T03:55:50.332Z,98814.78
2022-11-28T03:57:20.829Z,98805.37
2022-11-28T03:58:31.309Z,98813.59
2022-11-28T03:59:36.747Z,98809.19
2022-11-28T04:00:59.945Z,98801.28
2022-11-28T04:02:37.698Z,98798.84
2022-11-28T04:04:09.093Z,98804.44
2022-11-28T04:05:30.300Z,98806.34
2022-11-28T04:07:03.979Z,98802.47
2022-11-28T04:08:21.864Z,98804.37
2022-11-28T04:09:45.537Z,98799.50
2022-11-28T04:10:57.419Z,98789.22
2022-11-28T04:12:17.905Z,98798.69
2022-11-28T04:13:32.419Z,98791.59
2022-11-28T04:14:41.710Z,98791.44
2022-11-28T04:15:44.659Z,98798.94
2022-11-28T04:17:07.668Z,98795.91
2022-11-28T04:18:32.267Z,98794.97
2022-11-28T04:19:42.667Z,98794.00
2022-11-28T04:21:04.621Z,98787.91
2022-11-28T04:22:31.385Z,98792.84
2022-11-28T04:23:37.027Z,98791.59
2022-11-28T04:24:46.114Z,98790.13
2022-11-28T04:26:01.780Z,98793.28
2022-11-28T04:27:10.616Z,98790.13
2022-11-28T04:28:21.401Z,98789.91
2022-11-28T04:29:26.867Z,98791.16
2022-11-28T04:30:29.905Z,98789.91
2022-11-28T04:31:34.369Z,98785.72
2022-11-28T04:32:42.698Z,98789.37
2022-11-28T04:33:57.349Z,98791.06
2022-11-28T04:35:07.261Z,98787.63
2022-11-28T04:36:12.187Z,98793.06
2022-11-28T04:37:17.096Z,98791.28
2022-11-28T04:38:23.398Z,98788.50
2022-11-28T04:39:28.471Z,98789.59
2022-11-28T04:40:35.428Z,98793.62
2022-11-28T04:41:43.186Z,98786.50
2022-11-28T04:42:53.304Z,98794.97
2022-11-28T04:44:22.553Z,98791.94
2022-11-28T04:45:36.218Z,98790.63
2022-11-28T04:46:51.343Z,98789.06
2022-11-28T04:47:56.421Z,98790.75
2022-11-28T04:49:01.622Z,98790.63
2022-11-28T04:50:05.100Z,98784.22
2022-11-28T04:51:19.652Z,98785.50
2022-11-28T04:52:42.143Z,98781.00
2022-11-28T04:54:13.932Z,98776.09
2022-11-28T04:55:47.420Z,98780.97
2022-11-28T04:57:04.313Z,98777.00
2022-11-28T04:58:16.504Z,98772.19
2022-11-28T04:59:21.057Z,98776.91
2022-11-28T05:00:24.114Z,98782.00
2022-11-28T05:01:31.617Z,98784.94
2022-11-28T05:02:36.654Z,98783.88
2022-11-28T05:03:42.732Z,98783.63
2022-11-28T05:04:45.985Z,98782.41
2022-11-28T05:05:51.465Z,98778.25
2022-11-28T05:07:02.943Z,98781.66
2022-11-28T05:08:05.941Z,98776.31
2022-11-28T05:09:13.587Z,98786.88
2022-11-28T05:10:18.336Z,98782.16
2022-11-28T05:11:24.618Z,98795.53
2022-11-28T05:12:27.494Z,98786.94
2022-11-28T05:13:30.343Z,98778.59
2022-11-28T05:14:36.642Z,98786.75
2022-11-28T05:15:39.547Z,98781.31
2022-11-28T05:16:42.379Z,98786.44
2022-11-28T05:17:48.456Z,98793.91
2022-11-28T05:18:51.535Z,98791.28
2022-11-28T05:19:54.945Z,98788.13
2022-11-28T05:20:59.623Z,98789.94
2022-11-28T05:22:02.467Z,98785.84
2022-11-28T05:23:05.564Z,98789.91
2022-11-28T05:24:09.364Z,98792.69
2022-11-28T05:25:12.367Z,98789.16
2022-11-28T05:26:18.522Z,98786.06
2022-11-28T05:27:21.379Z,98792.38
2022-11-28T05:28:25.091Z,98794.88
2022-11-28T05:29:27.838Z,98801.25
2022-11-28T05:30:30.664Z,98795.91
2022-11-28T05:31:33.992Z,98799.66
2022-11-28T05:32:36.911Z,98801.66
2022-11-28T05:33:40.095Z,98800.59
2022-11-28T05:34:43.360Z,98804.06
2022-11-28T05:35:46.486Z,98810.75
2022-11-28T05:36:49.442Z,98809.78
2022-11-28T05:37:52.396Z,98810.81
2022-11-28T05:38:55.213Z,98810.09
2022-11-28T05:39:58.282Z,98810.28
2022-11-28T05:41:01.751Z,98809.06
2022-11-28T05:42:04.884Z,98810.94
2022-11-28T05:43:07.998Z,98816.91
2022-11-28T05:44:11.008Z,98810.75
2022-11-28T05:45:13.883Z,98821.06
2022-11-28T05:46:17.082Z,98817.13
2022-11-28T05:47:19.985Z,98810.94
2022-11-28T05:48:23.573Z,98814.91
2022-11-28T05:49:26.586Z,98812.00
2022-11-28T05:50:29.492Z,98815.97
2022-11-28T05:52:39.907Z,98820.94
2022-11-28T05:53:42.942Z,98811.34
2022-11-28T05:54:45.790Z,98809.16
2022-11-28T05:55:48.747Z,98814.50
2022-11-28T05:56:51.857Z,98807.75
2022-11-28T05:57:55.177Z,98814.72
2022-11-28T05:58:58.479Z,98808.53
2022-11-28T06:00:01.991Z,98807.28
2022-11-28T06:01:13.045Z,98806.78
2022-11-28T06:02:16.060Z,98805.84
2022-11-28T06:03:18.933Z,98808.31
2022-11-28T06:04:21.693Z,98805.09
2022-11-28T06:05:41.712Z,98808.03
2022-11-28T06:06:45.910Z,98803.13
2022-11-28T06:07:48.675Z,98807.75
2022-11-28T06:08:52.685Z,98816.69
2022-11-28T06:09:55.480Z,98813.97
2022-11-28T06:10:59.704Z,98815.00
2022-11-28T06:12:03.300Z,98813.75
2022-11-28T06:13:06.637Z,98812.06
2022-11-28T06:14:11.743Z,98811.34
2022-11-28T06:15:14.963Z,98819.41
2022-11-28T06:16:28.612Z,98813.28
2022-11-28T06:17:31.984Z,98816.53
2022-11-28T06:18:39.333Z,98813.56
2022-11-28T06:19:42.928Z,98821.94
2022-11-28T06:20:45.995Z,98816.00
2022-11-28T06:21:50.756Z,98820.13
2022-11-28T06:22:53.574Z,98822.19
2022-11-28T06:23:58.339Z,98819.25
2022-11-28T06:25:01.151Z,98820.50
2022-11-28T06:26:09.359Z,98814.84
2022-11-28T06:27:12.302Z,98817.50
2022-11-28T06:28:15.276Z,98812.78
2022-11-28T06:29:18.483Z,98809.28
2022-11-28T06:30:21.364Z,98814.72
2022-11-28T06:31:30.666Z,98813.25
2022-11-28T06:32:33.439Z,98822.56
2022-11-28T06:33:36.189Z,98809.78
2022-11-28T06:34:39.117Z,98816.53
2022-11-28T06:35:42.088Z,98812.84
2022-11-28T06:36:45.525Z,98812.19
2022-11-28T06:37:48.354Z,98816.00
2022-11-28T06:38:51.970Z,98809.47
2022-11-28T06:39:54.850Z,98813.47
2022-11-28T06:41:03.980Z,98810.81
2022-11-28T06:42:10.649Z,98817.28
2022-11-28T06:43:13.580Z,98819.47
2022-11-28T06:44:17.313Z,98819.56
2022-11-28T06:45:20.031Z,98812.87
2022-11-28T06:46:23.815Z,98804.00
2022-11-28T06:47:26.656Z,98812.34
2022-11-28T06:48:30.101Z,98805.47
2022-11-28T06:49:32.992Z,98811.63
2022-11-28T06:50:36.137Z,98821.38
2022-11-28T06:51:42.269Z,98820.78
2022-11-28T06:52:45.318Z,98819.94
2022-11-28T06:53:48.778Z,98820.22
2022-11-28T06:54:51.603Z,98822.94
2022-11-28T06:55:54.384Z,98826.31
2022-11-28T06:56:57.279Z,98821.38
2022-11-28T06:58:00.213Z,98820.75
2022-11-28T06:59:03.363Z,98820.75
2022-11-28T07:00:07.051Z,98824.91
2022-11-28T07:01:18.507Z,98822.66
2022-11-28T07:02:24.444Z,98822.25
2022-11-28T07:03:28.970Z,98818.28
2022-11-28T07:04:32.221Z,98812.19
2022-11-28T07:05:35.078Z,98823.59
2022-11-28T07:06:38.554Z,98818.06
2022-11-28T07:07:53.046Z,98816.97
2022-11-28T07:08:59.186Z,98820.06
2022-11-28T07:10:02.041Z,98816.09
2022-11-28T07:11:11.921Z,98818.06
2022-11-28T07:12:16.910Z,98812.44
2022-11-28T07:13:20.089Z,98820.66
2022-11-28T07:14:23.140Z,98813.25
2022-11-28T07:15:26.966Z,98815.94
2022-11-28T07:16:34.021Z,98816.22
2022-11-28T07:17:36.849Z,98813.59
2022-11-28T07:18:44.735Z,98821.38
2022-11-28T07:19:53.393Z,98814.75
2022-11-28T07:20:58.154Z,98817.06
2022-11-28T07:22:01.090Z,98819.09
2022-11-28T07:23:03.944Z,98820.72
2022-11-28T07:24:07.396Z,98820.50
2022-11-28T07:25:11.215Z,98830.84
2022-11-28T07:26:17.704Z,98815.81
2022-11-28T07:27:20.616Z,98827.69
2022-11-28T07:28:29.993Z,98824.75
2022-11-28T07:29:36.776Z,98821.06
2022-11-28T07:30:39.696Z,98827.47
2022-11-28T07:31:42.932Z,98825.28
2022-11-28T07:32:46.500Z,98829.75
2022-11-28T07:33:50.805Z,98815.88
2022-11-28T07:34:54.238Z,98821.06
2022-11-28T07:36:04.681Z,98822.50
2022-11-28T07:37:08.269Z,98828.13
2022-11-28T07:38:11.838Z,98816.00
2022-11-28T07:39:17.806Z,98817.56
2022-11-28T07:40:23.248Z,98817.88
2022-11-28T07:41:27.320Z,98813.66
2022-11-28T07:42:30.469Z,98812.44
2022-11-28T07:43:33.596Z,98810.44
2022-11-28T07:44:36.419Z,98813.91
2022-11-28T07:45:59.572Z,98817.88
2022-11-28T07:47:04.055Z,98810.66
2022-11-28T07:48:07.146Z,98808.16
2022-11-28T07:49:10.164Z,98801.53
2022-11-28T07:50:13.052Z,98813.75
2022-11-28T07:51:21.080Z,98809.03
2022-11-28T07:52:23.976Z,98805.28
2022-11-28T07:53:26.887Z,98802.56
2022-11-28T07:54:29.721Z,98801.69
2022-11-28T07:55:35.495Z,98799.50
2022-11-28T07:57:10.862Z,98797.13
2022-11-28T07:58:04.112Z,98800.06
2022-11-28T07:59:07.720Z,98801.97
2022-11-28T08:00:11.119Z,98793.34
2022-11-28T08:01:22.072Z,98796.84
2022-11-28T08:02:25.357Z,98795.91
2022-11-28T08:03:28.821Z,98795.25
2022-11-28T08:04:31.693Z,98798.19
2022-11-28T08:05:34.698Z,98800.25
2022-11-28T08:06:40.837Z,98799.28
2022-11-28T08:07:43.884Z,98797.00
2022-11-28T08:08:48.545Z,98803.41
2022-11-28T08:09:54.823Z,98788.94
2022-11-28T08:10:59.762Z,98798.84
2022-11-28T08:12:02.728Z,98803.75
2022-11-28T08:13:05.479Z,98795.41
2022-11-28T08:14:08.373Z,98802.59
2022-11-28T08:15:11.635Z,98796.06
2022-11-28T08:16:24.788Z,98797.37
2022-11-28T08:17:27.693Z,98804.13
2022-11-28T08:18:36.672Z,98801.19
2022-11-28T08:19:39.552Z,98799.06
2022-11-28T08:20:42.563Z,98801.34
2022-11-28T08:21:45.783Z,98797.44
2022-11-28T08:22:48.735Z,98801.94
2022-11-28T08:23:54.017Z,98801.50
2022-11-28T08:24:57.536Z,98797.81
2022-11-28T08:26:02.430Z,98804.50
2022-11-28T08:27:05.535Z,98799.34
2022-11-28T08:28:09.120Z,98801.56
2022-11-28T08:29:12.245Z,98805.50
2022-11-28T08:30:15.595Z,98803.03
2022-11-28T08:31:27.312Z,98819.31
2022-11-28T08:32:33.753Z,98807.94
2022-11-28T08:33:37.397Z,98810.44
2022-11-28T08:34:40.793Z,98807.66
2022-11-28T08:35:43.649Z,98813.75
2022-11-28T08:36:50.416Z,98814.47
2022-11-28T08:37:55.594Z,98811.09
2022-11-28T08:39:22.230Z,98814.34
2022-11-28T08:40:25.424Z,98819.31
2022-11-28T08:41:28.305Z,98818.38
2022-11-28T08:42:31.282Z,98812.78
2022-11-28T08:43:35.350Z,98812.13
2022-11-28T08:44:38.335Z,98815.00
2022-11-28T08:45:42.833Z,98809.84
2022-11-28T08:46:46.197Z,98812.28
2022-11-28T08:47:48.916Z,98810.06
2022-11-28T08:48:53.108Z,98810.78
2022-11-28T08:49:56.445Z,98813.09
2022-11-28T08:50:59.319Z,98808.91
2022-11-28T08:52:03.789Z,98812.78
2022-11-28T08:53:08.051Z,98809.16
2022-11-28T08:54:11.072Z,98811.75
2022-11-28T08:55:13.944Z,98820.63
2022-11-28T08:56:17.378Z,98817.47
2022-11-28T08:57:20.409Z,98816.00
2022-11-28T08:58:23.550Z,98814.56
2022-11-28T08:59:26.442Z,98814.75
2022-11-28T09:00:29.213Z,98808.50
2022-11-28T09:01:32.369Z,98813.22
2022-11-28T09:02:38.695Z,98813.00
2022-11-28T09:03:41.544Z,98813.75
2022-11-28T09:04:44.495Z,98819.22
2022-11-28T09:05:48.482Z,98807.41
2022-11-28T09:06:51.668Z,98807.50
2022-11-28T09:07:58.255Z,98806.25
2022-11-28T09:09:03.169Z,98803.09
2022-11-28T09:10:06.796Z,98809.69
2022-11-28T09:11:11.501Z,98809.59
2022-11-28T09:12:14.625Z,98803.44
2022-11-28T09:13:17.845Z,98802.72
2022-11-28T09:14:20.672Z,98800.44
2022-11-28T09:15:23.569Z,98804.37
2022-11-28T09:16:26.569Z,98804.00
2022-11-28T09:17:29.460Z,98799.59
2022-11-28T09:18:32.976Z,98800.84
2022-11-28T09:19:35.851Z,98795.66
2022-11-28T09:20:39.795Z,98798.56
2022-11-28T09:21:42.681Z,98797.75
2022-11-28T09:22:47.465Z,98796.84
2022-11-28T09:23:50.437Z,98798.81
2022-11-28T09:24:53.420Z,98796.63
2022-11-28T09:25:57.096Z,98798.19
2022-11-28T09:27:00.295Z,98802.44
2022-11-28T09:28:03.527Z,98791.69
2022-11-28T09:29:06.705Z,98795.59
2022-11-28T09:30:11.999Z,98786.78
2022-11-28T09:31:16.670Z,98789.31
2022-11-28T09:32:19.756Z,98801.09
2022-11-28T09:33:22.519Z,98793.69
2022-11-28T09:34:25.450Z,98790.44
2022-11-28T09:35:28.333Z,98792.34
2022-11-28T09:36:32.712Z,98795.59
2022-11-28T09:37:35.936Z,98790.69
2022-11-28T09:38:40.438Z,98788.78
2022-11-28T09:39:57.435Z,98793.16
2022-11-28T09:41:34.216Z,98790.88
2022-11-28T09:42:43.874Z,98788.03
2022-11-28T09:43:53.493Z,98784.38
2022-11-28T09:45:05.497Z,98789.41
2022-11-28T09:46:16.236Z,98783.00
2022-11-28T09:47:23.481Z,98780.81
2022-11-28T09:48:29.824Z,98778.62
2022-11-28T09:49:47.570Z,98785.50
2022-11-28T09:50:55.856Z,98770.12
2022-11-28T09:52:06.974Z,98767.84
2022-11-28T09:53:24.755Z,98768.94
2022-11-28T09:54:56.641Z,98763.25
2022-11-28T09:56:17.632Z,98759.91
2022-11-28T09:57:42.536Z,98764.22
2022-11-28T09:58:59.124Z,98750.00
2022-11-28T10:00:02.421Z,98752.28
2022-11-28T10:01:11.460Z,98751.13
2022-11-28T10:02:35.131Z,98746.31
2022-11-28T10:04:10.281Z,98756.06
2022-11-28T10:05:36.435Z,98750.37
2022-11-28T10:06:57.477Z,98752.00
2022-11-28T10:08:21.467Z,98759.22
2022-11-28T10:09:43.160Z,98751.75
2022-11-28T10:11:11.709Z,98751.37
2022-11-28T10:12:37.470Z,98764.75
2022-11-28T10:15:32.844Z,98753.75
2022-11-28T10:17:01.988Z,98748.41
2022-11-28T10:18:23.480Z,98748.41
2022-11-28T10:19:53.851Z,98747.66
2022-11-28T10:21:03.132Z,98747.38
2022-11-28T10:22:12.456Z,98750.94
2022-11-28T10:23:45.916Z,98739.12
2022-11-28T10:24:56.571Z,98745.31
2022-11-28T10:26:06.258Z,98737.56
2022-11-28T10:27:14.036Z,98743.41
2022-11-28T10:28:39.185Z,98744.03
2022-11-28T10:29:54.642Z,98741.53
2022-11-28T10:31:27.700Z,98738.41
2022-11-28T10:32:40.972Z,98734.34
2022-11-28T10:33:50.565Z,98733.81
2022-11-28T10:35:05.911Z,98734.53
2022-11-28T10:36:17.472Z,98739.22
2022-11-28T10:37:28.864Z,98737.25
2022-11-28T10:38:38.647Z,98725.84
2022-11-28T10:39:44.933Z,98728.16
2022-11-28T10:40:56.381Z,98728.03
2022-11-28T10:42:13.976Z,98730.34
2022-11-28T10:43:25.785Z,98725.53
2022-11-28T10:44:35.595Z,98721.56
2022-11-28T10:45:47.309Z,98730.34
2022-11-28T10:47:12.401Z,98718.50
2022-11-28T10:48:41.053Z,98719.25
2022-11-28T10:50:16.340Z,98726.28
2022-11-28T10:51:29.079Z,98718.97
2022-11-28T10:52:47.610Z,98711.44
2022-11-28T10:54:02.833Z,98722.50
2022-11-28T10:55:37.352Z,98720.53
2022-11-28T10:56:49.830Z,98715.84
2022-11-28T10:58:10.796Z,98707.44
2022-11-28T10:59:38.253Z,98709.88
2022-11-28T11:00:45.777Z,98710.06
2022-11-28T11:01:51.470Z,98706.22
2022-11-28T11:03:00.613Z,98706.97
2022-11-28T11:04:04.230Z,98697.53
2022-11-28T11:05:15.842Z,98702.88
2022-11-28T11:06:18.620Z,98699.22
2022-11-28T11:07:32.152Z,98706.22
2022-11-28T11:08:40.293Z,98704.34
2022-11-28T11:09:44.357Z,98704.87
2022-11-28T11:10:50.959Z,98699.94
2022-11-28T11:12:02.885Z,98703.47
2022-11-28T11:13:20.793Z,98702.66
2022-11-28T11:14:41.973Z,98708.41
2022-11-28T11:15:46.553Z,98701.84
2022-11-28T11:16:56.735Z,98695.44
2022-11-28T11:18:29.152Z,98699.75
2022-11-28T11:19:41.095Z,98694.41
2022-11-28T11:20:44.284Z,98695.34
2022-11-28T11:22:04.198Z,98700.16
2022-11-28T11:23:17.904Z,98701.19
2022-11-28T11:24:21.353Z,98700.56
2022-11-28T11:25:32.994Z,98697.84
2022-11-28T11:26:39.372Z,98700.03
2022-11-28T11:27:55.483Z,98691.56
2022-11-28T11:28:58.481Z,98698.47
2022-11-28T11:30:15.925Z,98694.19
2022-11-28T11:31:44.456Z,98695.66
2022-11-28T11:32:51.351Z,98701.53
2022-11-28T11:34:04.691Z,98701.41
2022-11-28T11:35:23.127Z,98704.13
2022-11-28T11:36:31.604Z,98698.03
2022-11-28T11:37:39.338Z,98696.19
2022-11-28T11:38:42.633Z,98692.72
2022-11-28T11:39:56.756Z,98695.94
2022-11-28T11:41:21.924Z,98698.66
2022-11-28T11:42:32.231Z,98699.41
2022-11-28T11:43:38.072Z,98696.47
2022-11-28T11:44:41.207Z,98697.00
2022-11-28T11:45:47.236Z,98695.75
2022-11-28T11:47:03.343Z,98699.50
2022-11-28T11:48:06.359Z,98705.97
2022-11-28T11:49:39.666Z,98699.81
2022-11-28T11:50:54.258Z,98697.50
2022-11-28T11:51:59.072Z,98693.25
2022-11-28T11:53:07.096Z,98695.84
2022-11-28T11:54:12.957Z,98695.75
2022-11-28T11:55:18.698Z,98692.59
2022-11-28T11:56:21.782Z,98690.41
2022-11-28T11:57:33.600Z,98689.16
2022-11-28T11:58:51.968Z,98691.03
2022-11-28T12:00:09.985Z,98680.91
2022-11-28T12:01:15.838Z,98683.63
2022-11-28T12:02:33.098Z,98693.16
2022-11-28T12:03:57.305Z,98687.50
2022-11-28T12:05:14.358Z,98684.34
2022-11-28T12:06:41.467Z,98685.75
2022-11-28T12:08:25.822Z,98681.00
2022-11-28T12:09:42.393Z,98683.00
2022-11-28T12:11:04.253Z,98684.56
2022-11-28T12:12:30.093Z,98683.28
2022-11-28T12:13:34.102Z,98672.13
2022-11-28T12:14:40.992Z,98678.91
2022-11-28T12:15:53.859Z,98675.56
2022-11-28T12:17:47.275Z,98667.31
2022-11-28T12:19:18.907Z,98673.91
2022-11-28T12:20:53.885Z,98670.03
2022-11-28T12:22:34.218Z,98672.09
2022-11-28T12:23:54.765Z,98673.88
2022-11-28T12:25:30.409Z,98669.81
2022-11-28T12:27:18.302Z,98667.31
2022-11-28T12:28:59.375Z,98659.06
2022-11-28T12:30:20.359Z,98662.38
2022-11-28T12:31:23.306Z,98666.56
2022-11-28T12:32:34.785Z,98662.28
2022-11-28T12:33:44.867Z,98659.37
2022-11-28T12:35:12.126Z,98661.69
2022-11-28T12:36:38.547Z,98656.03
2022-11-28T12:38:10.765Z,98655.59
2022-11-28T12:39:17.846Z,98658.94
2022-11-28T12:40:38.683Z,98659.47
2022-11-28T12:42:11.646Z,98652.03
2022-11-28T12:43:27.372Z,98656.56
2022-11-28T12:45:05.970Z,98650.59
2022-11-28T12:46:22.081Z,98653.19
2022-11-28T12:47:39.838Z,98651.34
2022-11-28T12:49:03.609Z,98654.69
2022-11-28T12:50:30.738Z,98657.38
2022-11-28T12:51:37.191Z,98654.56
2022-11-28T12:52:52.552Z,98655.31
2022-11-28T12:54:10.733Z,98652.91
2022-11-28T12:55:28.656Z,98653.53
2022-11-28T12:56:55.268Z,98652.47
2022-11-28T12:58:06.859Z,98638.25
2022-11-28T12:59:35.397Z,98648.19
2022-11-28T13:00:50.579Z,98643.28
2022-11-28T13:02:16.843Z,98641.41
2022-11-28T13:03:31.743Z,98638.47
2022-11-28T13:04:34.540Z,98644.56
2022-11-28T13:06:14.869Z,98634.91
2022-11-28T13:07:36.241Z,98634.59
2022-11-28T13:09:05.613Z,98640.03
2022-11-28T13:10:23.345Z,98632.72
2022-11-28T13:11:31.321Z,98636.41
2022-11-28T13:12:52.544Z,98638.47
2022-11-28T13:14:03.055Z,98633.38
2022-11-28T13:15:44.086Z,98632.50
2022-11-28T13:16:50.819Z,98628.44
2022-11-28T13:19:50.854Z,98632.81
2022-11-28T13:21:07.141Z,98632.44
2022-11-28T13:22:23.739Z,98632.09
2022-11-28T13:23:48.461Z,98640.47
2022-11-28T13:25:14.677Z,98634.69
2022-11-28T13:26:36.328Z,98623.94
2022-11-28T13:28:06.359Z,98636.72
2022-11-28T13:29:28.060Z,98635.97
2022-11-28T13:30:41.494Z,98639.63
2022-11-28T13:32:01.932Z,98634.28
2022-11-28T13:33:27.726Z,98639.84
2022-11-28T13:34:31.902Z,98632.41
2022-11-28T13:35:35.593Z,98633.66
2022-11-28T13:38:37.922Z,98625.53
2022-11-28T13:39:52.022Z,98632.59
2022-11-28T13:41:17.918Z,98626.12
2022-11-28T13:43:03.869Z,98628.22
2022-11-28T13:44:21.115Z,98627.91
2022-11-28T13:46:52.508Z,98624.28
2022-11-28T13:47:55.732Z,98620.81
2022-11-28T13:49:15.205Z,98633.16
2022-11-28T13:50:30.569Z,98627.72
2022-11-28T13:51:34.497Z,98624.66
2022-11-28T13:52:46.857Z,98620.72